createdAt,value
2019-06-27T00:01:10.967Z,13.93
2019-06-27T00:03:41.131Z,16.40
2019-06-27T00:06:11.307Z,14.43
2019-06-27T00:08:41.436Z,14.55
2019-06-27T00:11:11.572Z,15.40
2019-06-27T00:13:41.694Z,15.45
2019-06-27T00:16:12.648Z,15.50
2019-06-27T00:18:43.063Z,14.30
2019-06-27T00:21:13.339Z,14.15
2019-06-27T00:23:43.903Z,14.10
2019-06-27T00:26:14.042Z,12.80
2019-06-27T00:28:44.520Z,11.80
2019-06-27T00:31:14.870Z,10.88
2019-06-27T00:33:47.452Z,10.32
2019-06-27T00:36:17.297Z,9.55
2019-06-27T00:38:47.365Z,9.83
2019-06-27T00:41:18.883Z,10.03
2019-06-27T00:43:48.973Z,9.45
2019-06-27T00:46:19.424Z,9.20
2019-06-27T00:48:51.127Z,9.55
2019-06-27T00:51:21.170Z,9.53
2019-06-27T00:53:51.237Z,9.10
2019-06-27T00:56:21.558Z,9.35
2019-06-27T00:58:51.710Z,9.70
2019-06-27T01:01:21.934Z,9.60
2019-06-27T01:03:52.183Z,9.18
2019-06-27T01:06:23.201Z,8.85
2019-06-27T01:08:53.477Z,9.18
2019-06-27T01:11:23.834Z,9.03
2019-06-27T01:13:54.099Z,9.00
2019-06-27T01:16:24.335Z,9.10
2019-06-27T01:18:54.759Z,8.65
2019-06-27T01:21:24.875Z,8.85
2019-06-27T01:23:55.866Z,9.03
2019-06-27T01:26:26.070Z,9.30
2019-06-27T01:28:56.430Z,9.13
2019-06-27T01:31:26.566Z,9.00
2019-06-27T01:33:57.162Z,9.55
2019-06-27T01:36:27.297Z,9.28
2019-06-27T01:38:57.764Z,9.93
2019-06-27T01:41:27.808Z,8.98
2019-06-27T01:43:58.008Z,9.58
2019-06-27T01:46:29.220Z,10.25
2019-06-27T01:48:59.449Z,8.53
2019-06-27T01:51:29.979Z,9.20
2019-06-27T01:54:00.102Z,9.48
2019-06-27T01:56:30.133Z,9.23
2019-06-27T01:59:00.160Z,9.05
2019-06-27T02:01:30.477Z,9.45
2019-06-27T02:04:00.608Z,9.48
2019-06-27T02:06:30.687Z,9.28
2019-06-27T02:09:00.831Z,9.20
2019-06-27T02:11:31.346Z,8.75
2019-06-27T02:14:01.486Z,9.43
2019-06-27T02:16:31.573Z,9.48
2019-06-27T02:19:01.611Z,9.35
2019-06-27T02:21:32.173Z,9.65
2019-06-27T02:24:03.774Z,9.53
2019-06-27T02:26:34.018Z,9.40
2019-06-27T02:29:04.190Z,9.28
2019-06-27T02:31:35.130Z,9.70
2019-06-27T02:34:07.010Z,9.50
2019-06-27T02:36:37.054Z,9.18
2019-06-27T02:39:07.272Z,10.32
2019-06-27T02:41:37.431Z,10.00
2019-06-27T02:44:07.862Z,9.10
2019-06-27T02:46:40.289Z,9.68
2019-06-27T02:49:10.863Z,10.00
2019-06-27T02:51:41.059Z,9.40
2019-06-27T02:54:11.522Z,10.05
2019-06-27T02:56:41.591Z,9.73
2019-06-27T02:59:11.923Z,10.03
2019-06-27T03:01:41.947Z,9.78
2019-06-27T03:04:12.251Z,10.32
2019-06-27T03:06:42.464Z,9.95
2019-06-27T03:09:12.802Z,9.85
2019-06-27T03:11:43.021Z,10.28
2019-06-27T03:14:14.181Z,9.60
2019-06-27T03:16:44.384Z,10.20
2019-06-27T03:19:17.586Z,10.15
2019-06-27T03:21:47.728Z,10.10
2019-06-27T03:24:18.153Z,10.30
2019-06-27T03:26:48.485Z,10.15
2019-06-27T03:29:20.448Z,10.60
2019-06-27T03:31:50.769Z,10.30
2019-06-27T03:34:20.907Z,11.22
2019-06-27T03:36:53.200Z,10.40
2019-06-27T03:39:23.347Z,10.60
2019-06-27T03:41:55.605Z,11.33
2019-06-27T03:44:26.258Z,10.25
2019-06-27T03:46:56.705Z,10.95
2019-06-27T03:49:26.848Z,11.10
2019-06-27T03:51:57.148Z,11.08
2019-06-27T03:54:27.182Z,12.10
2019-06-27T03:56:57.216Z,10.05
2019-06-27T03:59:27.530Z,11.30
2019-06-27T04:01:57.652Z,10.88
2019-06-27T04:04:27.986Z,10.88
2019-06-27T04:06:58.103Z,11.80
2019-06-27T04:09:28.289Z,11.38
2019-06-27T04:11:58.812Z,10.65
2019-06-27T04:14:29.255Z,11.22
2019-06-27T04:16:59.440Z,11.03
2019-06-27T04:19:30.460Z,10.82
2019-06-27T04:22:00.664Z,10.35
2019-06-27T04:24:31.132Z,11.38
2019-06-27T04:27:01.335Z,11.05
2019-06-27T04:29:34.162Z,11.03
2019-06-27T04:32:04.909Z,10.65
2019-06-27T04:34:35.389Z,10.98
2019-06-27T04:37:05.983Z,10.25
2019-06-27T04:39:36.197Z,11.60
2019-06-27T04:42:06.486Z,10.78
2019-06-27T04:44:39.405Z,10.13
2019-06-27T04:47:09.798Z,11.00
2019-06-27T04:49:40.293Z,10.68
2019-06-27T04:52:10.555Z,9.80
2019-06-27T04:54:43.386Z,11.20
2019-06-27T04:57:13.601Z,10.03
2019-06-27T04:59:53.569Z,10.30
2019-06-27T05:02:15.964Z,9.73
2019-06-27T05:04:46.861Z,10.00
2019-06-27T05:07:17.052Z,10.40
2019-06-27T05:09:47.574Z,10.72
2019-06-27T05:12:17.957Z,9.63
2019-06-27T05:14:48.576Z,10.18
2019-06-27T05:17:19.940Z,10.08
2019-06-27T05:19:51.051Z,9.23
2019-06-27T05:22:21.307Z,9.80
2019-06-27T05:24:51.912Z,9.13
2019-06-27T05:27:24.887Z,9.80
2019-06-27T05:30:08.124Z,10.10
2019-06-27T05:32:29.466Z,10.03
2019-06-27T05:34:59.680Z,10.20
2019-06-27T05:37:30.236Z,10.28
2019-06-27T05:40:01.756Z,10.00
2019-06-27T05:42:31.880Z,10.18
2019-06-27T05:45:02.017Z,11.38
2019-06-27T05:47:33.549Z,11.85
2019-06-27T05:50:04.184Z,11.60
2019-06-27T05:52:34.852Z,13.03
2019-06-27T05:55:05.106Z,12.35
2019-06-27T05:57:35.543Z,11.38
2019-06-27T06:00:26.672Z,11.80
2019-06-27T06:02:41.888Z,12.28
2019-06-27T06:05:12.519Z,11.40
2019-06-27T06:07:42.739Z,12.35
2019-06-27T06:10:13.363Z,12.55
2019-06-27T06:12:43.821Z,11.63
2019-06-27T06:15:14.119Z,12.07
2019-06-27T06:17:44.336Z,12.15
2019-06-27T06:20:15.112Z,11.73
2019-06-27T06:22:45.392Z,10.63
2019-06-27T06:25:17.152Z,10.68
2019-06-27T06:27:47.707Z,10.75
2019-06-27T06:30:19.578Z,10.53
2019-06-27T06:32:50.010Z,10.95
2019-06-27T06:35:24.506Z,9.70
2019-06-27T06:37:55.157Z,9.53
2019-06-27T06:40:27.729Z,9.68
2019-06-27T06:43:00.535Z,9.68
2019-06-27T06:45:30.367Z,10.30
2019-06-27T06:48:00.635Z,10.08
2019-06-27T06:50:33.841Z,10.08
2019-06-27T06:53:05.003Z,9.53
2019-06-27T06:55:44.820Z,11.25
2019-06-27T06:58:15.433Z,10.60
2019-06-27T07:01:00.329Z,9.75
2019-06-27T07:03:17.871Z,10.60
2019-06-27T07:05:48.254Z,9.95
2019-06-27T07:08:18.588Z,10.08
2019-06-27T07:10:48.953Z,10.48
2019-06-27T07:13:19.219Z,12.45
2019-06-27T07:15:49.546Z,9.53
2019-06-27T07:18:21.622Z,10.50
2019-06-27T07:20:51.754Z,9.55
2019-06-27T07:23:22.295Z,10.18
2019-06-27T07:25:52.583Z,10.35
2019-06-27T07:28:22.755Z,9.80
2019-06-27T07:30:53.066Z,10.35
2019-06-27T07:33:22.668Z,9.80
2019-06-27T07:35:52.760Z,9.38
2019-06-27T07:38:23.215Z,9.25
2019-06-27T07:40:54.067Z,9.23
2019-06-27T07:43:24.299Z,10.25
2019-06-27T07:45:54.469Z,10.90
2019-06-27T07:48:26.053Z,10.20
2019-06-27T07:50:56.624Z,10.10
2019-06-27T07:53:26.820Z,10.48
2019-06-27T07:55:57.481Z,10.60
2019-06-27T07:58:27.646Z,10.95
2019-06-27T08:00:58.060Z,10.48
2019-06-27T08:03:28.227Z,10.90
2019-06-27T08:05:58.808Z,10.65
2019-06-27T08:08:28.930Z,11.10
2019-06-27T08:10:59.236Z,10.65
2019-06-27T08:13:29.880Z,10.55
2019-06-27T08:16:00.101Z,11.00
2019-06-27T08:18:30.446Z,11.03
2019-06-27T08:21:00.662Z,10.88
2019-06-27T08:23:41.140Z,11.70
2019-06-27T08:26:02.847Z,14.75
2019-06-27T08:28:34.203Z,11.30
2019-06-27T08:31:04.517Z,9.60
2019-06-27T08:33:34.651Z,11.00
2019-06-27T08:36:06.705Z,10.93
2019-06-27T08:38:36.867Z,11.38
2019-06-27T08:41:06.991Z,10.90
2019-06-27T08:43:37.527Z,11.10
2019-06-27T08:46:07.888Z,11.60
2019-06-27T08:48:39.405Z,11.38
2019-06-27T08:51:09.610Z,10.20
2019-06-27T08:53:40.073Z,10.80
2019-06-27T08:56:09.673Z,11.53
2019-06-27T08:58:39.165Z,11.53
2019-06-27T09:01:09.240Z,12.28
2019-06-27T09:03:38.980Z,11.22
2019-06-27T09:06:09.103Z,11.40
2019-06-27T09:08:39.383Z,10.65
2019-06-27T09:11:08.993Z,11.00
2019-06-27T09:13:42.577Z,11.22
2019-06-27T09:16:13.072Z,11.20
2019-06-27T09:18:43.368Z,11.25
2019-06-27T09:21:14.260Z,10.32
2019-06-27T09:23:44.404Z,10.85
2019-06-27T09:26:15.592Z,10.70
2019-06-27T09:28:46.226Z,10.70
2019-06-27T09:31:16.962Z,10.68
2019-06-27T09:33:48.608Z,11.40
2019-06-27T09:36:18.730Z,11.65
2019-06-27T09:38:48.989Z,13.15
2019-06-27T09:41:19.554Z,11.68
2019-06-27T09:43:49.918Z,11.90
2019-06-27T09:46:20.304Z,11.38
2019-06-27T09:48:50.429Z,12.50
2019-06-27T09:51:21.124Z,13.08
2019-06-27T09:53:52.751Z,14.55
2019-06-27T09:56:23.109Z,23.45
2019-06-27T09:58:54.060Z,15.55
2019-06-27T10:01:23.688Z,16.97
2019-06-27T10:03:54.426Z,13.43
2019-06-27T10:06:26.399Z,12.55
2019-06-27T10:08:57.035Z,12.07
2019-06-27T10:11:27.360Z,12.93
2019-06-27T10:14:05.355Z,12.30
2019-06-27T10:16:37.499Z,13.68
2019-06-27T10:19:10.380Z,12.68
2019-06-27T10:21:44.267Z,13.65
2019-06-27T10:24:16.574Z,13.10
2019-06-27T10:26:50.179Z,13.68
2019-06-27T10:29:20.338Z,14.45
2019-06-27T10:31:50.606Z,13.58
2019-06-27T10:34:21.266Z,14.87
2019-06-27T10:36:52.976Z,14.63
2019-06-27T10:39:23.553Z,13.88
2019-06-27T10:41:53.766Z,13.95
2019-06-27T10:44:24.177Z,13.32
2019-06-27T10:46:53.820Z,14.13
2019-06-27T10:49:24.962Z,13.98
2019-06-27T10:51:56.411Z,14.05
2019-06-27T10:54:26.757Z,13.40
2019-06-27T10:56:57.617Z,13.72
2019-06-27T10:59:28.108Z,14.33
2019-06-27T11:02:01.211Z,14.73
2019-06-27T11:04:31.459Z,16.42
2019-06-27T11:07:01.697Z,14.40
2019-06-27T11:09:31.555Z,15.03
2019-06-27T11:12:01.260Z,13.60
2019-06-27T11:14:31.672Z,14.35
2019-06-27T11:17:01.282Z,13.50
2019-06-27T11:19:51.430Z,13.40
2019-06-27T11:22:11.018Z,13.40
2019-06-27T11:24:43.717Z,11.43
2019-06-27T11:27:27.225Z,12.55
2019-06-27T11:29:56.016Z,12.40
2019-06-27T11:32:26.178Z,12.85
2019-06-27T11:34:56.721Z,10.93
2019-06-27T11:37:27.249Z,11.20
2019-06-27T11:39:57.764Z,11.28
2019-06-27T11:42:29.866Z,12.10
2019-06-27T11:44:59.990Z,12.18
2019-06-27T11:47:30.160Z,12.30
2019-06-27T11:50:00.623Z,12.40
2019-06-27T11:52:32.048Z,12.00
2019-06-27T11:55:01.934Z,12.45
2019-06-27T11:57:31.492Z,13.05
2019-06-27T12:00:02.099Z,12.50
2019-06-27T12:02:32.654Z,11.10
2019-06-27T12:05:02.897Z,9.98
2019-06-27T12:07:33.166Z,10.60
2019-06-27T12:10:03.338Z,10.03
2019-06-27T12:12:33.430Z,9.78
2019-06-27T12:15:03.542Z,10.93
2019-06-27T12:17:33.851Z,10.35
2019-06-27T12:20:03.726Z,10.70
2019-06-27T12:22:33.376Z,10.68
2019-06-27T12:25:03.939Z,9.28
2019-06-27T12:27:34.350Z,10.25
2019-06-27T12:30:05.009Z,10.13
2019-06-27T12:32:50.348Z,10.25
2019-06-27T12:35:06.649Z,10.58
2019-06-27T12:37:39.911Z,10.43
2019-06-27T12:40:10.643Z,10.35
2019-06-27T12:42:42.482Z,10.60
2019-06-27T12:45:13.050Z,8.50
2019-06-27T12:47:43.245Z,8.50
2019-06-27T12:50:13.579Z,8.68
2019-06-27T12:52:43.711Z,8.63
2019-06-27T12:55:14.422Z,8.38
2019-06-27T12:57:44.697Z,8.70
2019-06-27T13:00:15.958Z,8.55
2019-06-27T13:02:46.448Z,8.23
2019-06-27T13:05:16.289Z,8.85
2019-06-27T13:07:46.749Z,8.93
2019-06-27T13:10:17.379Z,8.78
2019-06-27T13:12:47.737Z,9.80
2019-06-27T13:15:18.670Z,9.25
2019-06-27T13:17:49.213Z,9.05
2019-06-27T13:20:19.964Z,10.00
2019-06-27T13:22:50.232Z,9.20
2019-06-27T13:25:20.591Z,9.25
2019-06-27T13:27:51.348Z,9.78
2019-06-27T13:30:25.085Z,9.05
2019-06-27T13:33:05.953Z,9.10
2019-06-27T13:35:42.893Z,9.25
2019-06-27T13:38:14.728Z,9.30
2019-06-27T13:40:48.342Z,10.88
2019-06-27T13:43:19.194Z,9.23
2019-06-27T13:45:50.315Z,8.55
2019-06-27T13:48:21.052Z,8.83
2019-06-27T13:50:57.683Z,8.70
2019-06-27T13:53:27.540Z,9.03
2019-06-27T13:55:58.840Z,8.65
2019-06-27T13:58:29.658Z,9.08
2019-06-27T14:00:59.859Z,8.88
2019-06-27T14:03:30.501Z,8.63
2019-06-27T14:06:03.289Z,8.20
2019-06-27T14:08:33.918Z,8.90
2019-06-27T14:11:05.378Z,7.97
2019-06-27T14:13:37.395Z,7.97
2019-06-27T14:16:07.585Z,8.23
2019-06-27T14:18:37.807Z,7.37
2019-06-27T14:21:08.768Z,8.53
2019-06-27T14:23:40.034Z,8.70
2019-06-27T14:26:15.232Z,7.80
2019-06-27T14:28:45.779Z,8.25
2019-06-27T14:31:17.274Z,8.48
2019-06-27T14:33:48.265Z,7.62
2019-06-27T14:36:19.207Z,8.38
2019-06-27T14:38:50.179Z,7.80
2019-06-27T14:41:21.241Z,8.18
2019-06-27T14:43:51.711Z,7.35
2019-06-27T14:46:27.329Z,8.53
2019-06-27T14:48:57.794Z,8.28
2019-06-27T14:51:28.446Z,7.85
2019-06-27T14:53:59.491Z,7.92
2019-06-27T14:56:30.415Z,8.03
2019-06-27T14:59:04.308Z,7.50
2019-06-27T15:01:36.095Z,7.85
2019-06-27T15:04:06.839Z,7.25
2019-06-27T15:06:38.127Z,7.47
2019-06-27T15:09:10.253Z,7.60
2019-06-27T15:11:40.878Z,7.97
2019-06-27T15:14:11.287Z,7.37
2019-06-27T15:16:41.501Z,7.10
2019-06-27T15:19:13.936Z,7.45
2019-06-27T15:21:45.057Z,6.85
2019-06-27T15:24:15.884Z,7.42
2019-06-27T15:26:47.125Z,7.28
2019-06-27T15:29:17.609Z,6.97
2019-06-27T15:31:48.088Z,7.40
2019-06-27T15:34:20.416Z,7.20
2019-06-27T15:36:51.338Z,7.10
2019-06-27T15:39:21.600Z,7.35
2019-06-27T15:41:51.748Z,7.85
2019-06-27T15:44:22.014Z,6.92
2019-06-27T15:46:54.218Z,7.40
2019-06-27T15:49:25.465Z,6.92
2019-06-27T15:51:55.397Z,6.35
2019-06-27T15:54:25.776Z,7.30
2019-06-27T15:56:56.002Z,7.33
2019-06-27T15:59:26.429Z,7.17
2019-06-27T16:01:56.951Z,6.95
2019-06-27T16:04:32.806Z,6.70
2019-06-27T16:07:00.314Z,7.40
2019-06-27T16:09:32.479Z,7.70
2019-06-27T16:12:04.187Z,7.62
2019-06-27T16:14:34.959Z,7.50
2019-06-27T16:17:05.000Z,8.00
2019-06-27T16:19:37.096Z,7.70
2019-06-27T16:22:07.576Z,8.15
2019-06-27T16:24:37.784Z,8.08
2019-06-27T16:27:08.197Z,7.97
2019-06-27T16:29:38.417Z,7.58
2019-06-27T16:32:08.511Z,8.10
2019-06-27T16:34:38.648Z,8.38
2019-06-27T16:37:08.983Z,8.05
2019-06-27T16:39:40.140Z,8.73
2019-06-27T16:42:10.812Z,8.30
2019-06-27T16:44:40.942Z,8.13
2019-06-27T16:47:11.235Z,7.97
2019-06-27T16:49:42.812Z,8.33
2019-06-27T16:52:14.652Z,8.65
2019-06-27T16:54:44.862Z,8.63
2019-06-27T16:57:15.495Z,8.65
2019-06-27T16:59:46.678Z,8.95
2019-06-27T17:02:16.922Z,9.20
2019-06-27T17:04:47.382Z,9.43
2019-06-27T17:07:19.755Z,9.75
2019-06-27T17:09:51.875Z,9.33
2019-06-27T17:12:22.384Z,9.83
2019-06-27T17:14:53.634Z,9.10
2019-06-27T17:17:23.855Z,10.08
2019-06-27T17:19:53.971Z,10.70
2019-06-27T17:22:24.303Z,10.35
2019-06-27T17:24:54.826Z,9.83
2019-06-27T17:27:25.924Z,9.85
2019-06-27T17:29:57.566Z,9.55
2019-06-27T17:32:27.976Z,9.88
2019-06-27T17:34:58.323Z,10.20
2019-06-27T17:37:28.436Z,10.32
2019-06-27T17:39:59.027Z,10.08
2019-06-27T17:42:32.220Z,10.03
2019-06-27T17:45:02.302Z,10.48
2019-06-27T17:47:32.397Z,10.40
2019-06-27T17:50:02.443Z,10.80
2019-06-27T17:52:34.344Z,10.65
2019-06-27T17:55:04.658Z,10.85
2019-06-27T17:57:34.978Z,10.63
2019-06-27T18:00:06.348Z,10.60
2019-06-27T18:02:36.955Z,11.05
2019-06-27T18:05:07.291Z,11.57
2019-06-27T18:07:37.920Z,11.12
2019-06-27T18:10:08.719Z,11.68
2019-06-27T18:12:38.983Z,11.05
2019-06-27T18:15:09.585Z,11.48
2019-06-27T18:17:40.142Z,11.73
2019-06-27T18:20:11.656Z,11.40
2019-06-27T18:22:42.410Z,12.13
2019-06-27T18:25:12.813Z,12.70
2019-06-27T18:27:43.419Z,12.68
2019-06-27T18:30:15.535Z,12.60
2019-06-27T18:32:45.894Z,12.33
2019-06-27T18:35:19.177Z,13.18
2019-06-27T18:37:50.111Z,12.70
2019-06-27T18:40:20.978Z,14.13
2019-06-27T18:42:50.868Z,13.25
2019-06-27T18:45:20.901Z,13.35
2019-06-27T18:47:51.106Z,13.05
2019-06-27T18:50:21.330Z,14.07
2019-06-27T18:52:52.419Z,13.95
2019-06-27T18:55:22.954Z,14.50
2019-06-27T18:57:56.809Z,14.38
2019-06-27T19:00:27.505Z,14.30
2019-06-27T19:02:57.762Z,14.33
2019-06-27T19:05:27.973Z,14.68
2019-06-27T19:07:58.613Z,14.50
2019-06-27T19:10:29.011Z,14.13
2019-06-27T19:12:59.262Z,14.45
2019-06-27T19:15:29.447Z,14.60
2019-06-27T19:17:59.943Z,14.85
2019-06-27T19:20:38.420Z,14.63
2019-06-27T19:23:36.871Z,14.60
2019-06-27T19:26:07.057Z,14.40
2019-06-27T19:28:38.936Z,14.13
2019-06-27T19:31:08.640Z,14.35
2019-06-27T19:33:38.498Z,14.00
2019-06-27T19:36:07.932Z,14.35
2019-06-27T19:38:38.243Z,14.15
2019-06-27T19:41:08.370Z,14.38
2019-06-27T19:43:41.128Z,14.30
2019-06-27T19:46:11.339Z,14.18
2019-06-27T19:48:45.377Z,14.05
2019-06-27T19:51:13.694Z,14.70
2019-06-27T19:53:43.844Z,14.50
2019-06-27T19:56:16.129Z,15.93
2019-06-27T19:58:46.666Z,14.45
2019-06-27T20:01:16.319Z,14.60
2019-06-27T20:03:46.743Z,15.20
2019-06-27T20:06:17.252Z,14.80
2019-06-27T20:08:47.248Z,14.80
2019-06-27T20:11:17.311Z,15.80
2019-06-27T20:13:47.802Z,14.75
2019-06-27T20:16:18.137Z,16.27
2019-06-27T20:18:47.547Z,15.88
2019-06-27T20:21:17.979Z,14.98
2019-06-27T20:23:47.812Z,15.43
2019-06-27T20:26:17.292Z,15.10
2019-06-27T20:28:47.599Z,14.95
2019-06-27T20:31:19.983Z,15.40
2019-06-27T20:33:48.842Z,15.43
2019-06-27T20:36:18.290Z,15.72
2019-06-27T20:38:47.916Z,15.78
2019-06-27T20:41:18.114Z,15.48
2019-06-27T20:43:48.302Z,15.90
2019-06-27T20:46:18.530Z,15.60
2019-06-27T20:48:52.976Z,16.00
2019-06-27T20:51:21.030Z,16.10
2019-06-27T20:53:51.052Z,16.40
2019-06-27T20:56:20.458Z,16.42
2019-06-27T20:58:51.355Z,16.40
2019-06-27T21:01:22.565Z,15.80
2019-06-27T21:03:53.336Z,15.83
2019-06-27T21:06:23.056Z,15.83
2019-06-27T21:08:53.107Z,15.53
2019-06-27T21:11:23.426Z,16.10
2019-06-27T21:13:54.559Z,15.70
2019-06-27T21:16:27.147Z,15.78
2019-06-27T21:18:57.506Z,15.85
2019-06-27T21:21:27.899Z,15.03
2019-06-27T21:23:58.152Z,15.13
2019-06-27T21:26:28.537Z,14.73
2019-06-27T21:28:59.002Z,15.48
2019-06-27T21:31:29.329Z,14.73
2019-06-27T21:33:58.938Z,15.05
2019-06-27T21:36:28.796Z,14.70
2019-06-27T21:39:07.408Z,14.80
2019-06-27T21:41:33.902Z,15.03
2019-06-27T21:44:03.510Z,15.15
2019-06-27T21:46:33.209Z,15.23
2019-06-27T21:49:04.047Z,14.78
2019-06-27T21:51:34.272Z,14.65
2019-06-27T21:54:06.403Z,15.50
2019-06-27T21:56:36.904Z,15.20
2019-06-27T21:59:07.682Z,15.20
2019-06-27T22:01:38.019Z,14.43
2019-06-27T22:04:07.701Z,14.93
2019-06-27T22:06:38.749Z,14.58
2019-06-27T22:09:23.544Z,15.45
2019-06-27T22:11:41.134Z,15.05
2019-06-27T22:14:11.186Z,15.43
2019-06-27T22:16:41.362Z,15.38
2019-06-27T22:19:11.002Z,15.48
2019-06-27T22:21:41.485Z,15.63
2019-06-27T22:24:11.636Z,15.60
2019-06-27T22:26:41.992Z,15.28
2019-06-27T22:29:12.068Z,15.63
2019-06-27T22:31:42.475Z,15.63
2019-06-27T22:34:12.599Z,15.55
2019-06-27T22:36:43.055Z,16.00
2019-06-27T22:39:40.324Z,15.70
2019-06-27T22:42:20.616Z,16.12
2019-06-27T22:45:08.590Z,15.83
2019-06-27T22:47:56.488Z,15.43
2019-06-27T22:51:04.781Z,16.52
2019-06-27T22:53:40.452Z,16.02
2019-06-27T22:56:10.071Z,16.25
2019-06-27T22:58:39.774Z,15.83
2019-06-27T23:01:09.195Z,15.48
2019-06-27T23:03:38.666Z,15.63
2019-06-27T23:06:08.105Z,14.75
2019-06-27T23:08:38.222Z,14.95
2019-06-27T23:11:08.203Z,14.85
2019-06-27T23:13:38.262Z,14.78
2019-06-27T23:16:08.314Z,14.07
2019-06-27T23:18:40.279Z,13.75
2019-06-27T23:21:10.597Z,13.65
2019-06-27T23:23:40.731Z,13.60
2019-06-27T23:26:11.111Z,14.25
2019-06-27T23:28:41.445Z,13.48
2019-06-27T23:31:11.551Z,13.90
2019-06-27T23:33:43.583Z,13.72
2019-06-27T23:36:14.596Z,13.08
2019-06-27T23:38:45.689Z,12.80
2019-06-27T23:41:16.139Z,13.75
2019-06-27T23:43:46.194Z,13.45
2019-06-27T23:46:33.811Z,12.53
2019-06-27T23:49:03.935Z,12.35
2019-06-27T23:51:34.486Z,12.63
2019-06-27T23:54:04.675Z,12.53
2019-06-27T23:56:35.101Z,12.63
2019-06-27T23:59:04.771Z,11.68
